Time;durP1;ratioP1;P1;durP2;ratioP2;P2;SDS_P1;SDS_P2;PMS_P1;PMS_P2;Temp;Humidity;BMP_temperature;BMP_pressure;BME280_temperature;BME280_humidity;BME280_pressure;Samples;Min_cycle;Max_cycle;Signal;HPM_P1;HPM_P2
2022/09/13 00:00:16;;;;;;;;;;;;;;;19.51;57.06;99457.06;5098457;28;19916;-68
2022/09/13 00:02:42;;;;;;;;;;;;;;;19.58;56.74;99455.97;5099616;28;19919;-68
2022/09/13 00:05:07;;;;;;;;;;;;;;;19.71;56.60;99460.34;5100364;28;19951;-67
2022/09/13 00:07:32;;;;;;;;;;;;;;;19.69;56.73;99455.19;5101984;28;19912;-68
2022/09/13 00:09:58;;;;;;;;;;;;;;;19.64;56.59;99459.59;5099759;28;19916;-68
2022/09/13 00:12:23;;;;;;;;;;;;;;;19.77;56.33;99456.75;5098071;28;19920;-68
2022/09/13 00:14:49;;;;;;;;;;;;;;;19.68;56.67;99460.78;5097938;28;19990;-68
2022/09/13 00:17:14;;;;;;;;;;;;;;;19.51;57.13;99455.22;5098212;28;19924;-68
2022/09/13 00:19:39;;;;;;;;;;;;;;;19.55;57.06;99451.06;5098978;28;19957;-68
2022/09/13 00:22:05;;;;;;;;;;;;;;;19.57;56.94;99451.66;5101901;28;20095;-68
2022/09/13 00:24:31;;;;;;;;;;;;;;;19.43;57.13;99452.84;5100979;28;19908;-68
2022/09/13 00:26:56;;;;;;;;;;;;;;;19.47;56.74;99448.66;5079150;28;19924;-68
2022/09/13 00:29:21;;;;;;;;;;;;;;;19.44;57.15;99443.72;5097043;28;19919;-68
2022/09/13 00:31:46;;;;;;;;;;;;;;;19.45;56.84;99448.88;5098491;28;19985;-68
2022/09/13 00:34:12;;;;;;;;;;;;;;;19.43;56.86;99439.41;5098677;28;19943;-68
2022/09/13 00:36:37;;;;;;;;;;;;;;;19.30;57.07;99443.09;5098251;28;19916;-68
2022/09/13 00:39:02;;;;;;;;;;;;;;;19.40;57.13;99447.91;5101467;28;19919;-67
2022/09/13 00:41:27;;;;;;;;;;;;;;;19.49;56.75;99449.25;5082082;28;19923;-68
2022/09/13 00:43:57;;;;;;;;;;;;;;;19.40;56.68;99445.22;5097044;28;19927;-68
2022/09/13 00:46:30;;;;;;;;;;;;;;;19.42;56.59;99448.50;5096654;28;20105;-67
2022/09/13 00:48:57;;;;;;;;;;;;;;;19.32;56.86;99451.72;5094432;28;19918;-67
2022/09/13 00:51:23;;;;;;;;;;;;;;;19.39;56.46;99452.47;5100248;28;19923;-68
2022/09/13 00:53:51;;;;;;;;;;;;;;;19.10;57.25;99447.88;5101311;28;19908;-68
2022/09/13 00:56:21;;;;;;;;;;;;;;;19.26;57.19;99447.25;5097850;28;20221;-67
2022/09/13 00:58:49;;;;;;;;;;;;;;;19.24;57.08;99440.47;5097531;28;19919;-68
2022/09/13 01:01:15;;;;;;;;;;;;;;;19.24;57.26;99443.16;5101402;28;20090;-68
2022/09/13 01:03:42;;;;;;;;;;;;;;;19.13;57.58;99452.78;5097769;28;19912;-68
2022/09/13 01:06:10;;;;;;;;;;;;;;;19.09;57.59;99446.22;5096564;28;20004;-68
2022/09/13 01:08:36;;;;;;;;;;;;;;;19.19;57.61;99446.53;5099740;28;20198;-67
2022/09/13 01:11:05;;;;;;;;;;;;;;;19.02;58.08;99440.94;5101059;28;20114;-68
2022/09/13 01:13:32;;;;;;;;;;;;;;;18.97;58.51;99439.97;5098919;28;19943;-68
2022/09/13 01:15:57;;;;;;;;;;;;;;;18.99;58.54;99440.56;5097180;28;20090;-67
2022/09/13 01:18:23;;;;;;;;;;;;;;;18.90;58.88;99444.59;5097305;28;19927;-68
2022/09/13 01:20:51;;;;;;;;;;;;;;;18.73;59.33;99441.69;5097714;28;19947;-67
2022/09/13 01:23:26;;;;;;;;;;;;;;;18.79;59.65;99440.78;5101315;28;19965;-67
2022/09/13 01:25:57;;;;;;;;;;;;;;;18.85;59.50;99445.28;5098800;28;19916;-68
2022/09/13 01:28:25;;;;;;;;;;;;;;;18.89;59.50;99441.09;5096225;28;19944;-68
2022/09/13 01:31:00;;;;;;;;;;;;;;;18.80;59.77;99445.13;5078839;28;19970;-68
2022/09/13 01:33:37;;;;;;;;;;;;;;;18.96;58.97;99432.97;5094561;28;19943;-67
2022/09/13 01:36:10;;;;;;;;;;;;;;;18.89;59.45;99445.63;5097223;28;19916;-68
2022/09/13 01:38:35;;;;;;;;;;;;;;;18.74;59.90;99441.47;5097251;28;20428;-67
2022/09/13 01:41:16;;;;;;;;;;;;;;;18.77;59.88;99442.88;5095959;28;19989;-67
2022/09/13 01:43:41;;;;;;;;;;;;;;;18.90;59.26;99437.38;5093481;28;19915;-68
2022/09/13 01:46:15;;;;;;;;;;;;;;;18.93;59.50;99439.59;5097527;28;20070;-67
2022/09/13 01:48:59;;;;;;;;;;;;;;;19.06;58.99;99444.81;5098887;28;19979;-68
2022/09/13 01:51:30;;;;;;;;;;;;;;;18.96;59.11;99447.22;5103572;28;19912;-67
2022/09/13 01:53:55;;;;;;;;;;;;;;;18.99;59.19;99444.06;5101019;28;19919;-68
2022/09/13 01:56:39;;;;;;;;;;;;;;;19.14;58.53;99446.38;5102428;28;19916;-68
2022/09/13 01:59:15;;;;;;;;;;;;;;;18.95;58.96;99434.84;5103266;28;19947;-67
2022/09/13 02:01:49;;;;;;;;;;;;;;;18.95;59.19;99442.88;5104704;28;20189;-68
2022/09/13 02:04:18;;;;;;;;;;;;;;;18.93;58.95;99434.25;5099834;28;19912;-68
2022/09/13 02:06:47;;;;;;;;;;;;;;;18.76;59.67;99439.38;5101161;28;19999;-68
2022/09/13 02:09:18;;;;;;;;;;;;;;;18.74;59.88;99429.91;5103638;28;20202;-68
2022/09/13 02:11:47;;;;;;;;;;;;;;;18.83;59.82;99427.75;5104490;28;20194;-68
2022/09/13 02:14:14;;;;;;;;;;;;;;;18.59;60.47;99427.53;5099091;28;20206;-68
2022/09/13 02:16:44;;;;;;;;;;;;;;;18.73;60.22;99429.09;5101555;28;19923;-68
2022/09/13 02:19:20;;;;;;;;;;;;;;;18.61;60.67;99428.16;5081986;28;19939;-67
2022/09/13 02:21:50;;;;;;;;;;;;;;;18.59;60.52;99432.88;5104368;28;19911;-67
2022/09/13 02:24:18;;;;;;;;;;;;;;;18.58;60.83;99425.88;5102622;28;19912;-68
2022/09/13 02:26:45;;;;;;;;;;;;;;;18.67;60.41;99432.63;5081727;28;20202;-68
2022/09/13 02:29:13;;;;;;;;;;;;;;;18.60;60.96;99431.03;5100391;28;19919;-68
2022/09/13 02:31:44;;;;;;;;;;;;;;;18.76;60.18;99434.00;5098997;28;19962;-68
2022/09/13 02:34:13;;;;;;;;;;;;;;;18.41;61.36;99438.22;5099410;28;20123;-68
2022/09/13 02:36:40;;;;;;;;;;;;;;;18.18;62.55;99441.50;5099387;28;19943;-67
2022/09/13 02:39:13;;;;;;;;;;;;;;;18.06;62.95;99446.75;5100553;28;19975;-68
2022/09/13 02:41:41;;;;;;;;;;;;;;;18.14;63.30;99451.03;5098990;28;19924;-67
2022/09/13 02:44:10;;;;;;;;;;;;;;;18.43;62.38;99446.84;5099369;28;19912;-68
2022/09/13 02:46:36;;;;;;;;;;;;;;;18.47;61.90;99443.53;5100745;28;20166;-67
2022/09/13 02:49:23;;;;;;;;;;;;;;;18.38;61.96;99447.53;5104116;28;19915;-67
2022/09/13 02:51:57;;;;;;;;;;;;;;;18.13;62.37;99442.16;5101904;28;20197;-67
2022/09/13 02:54:22;;;;;;;;;;;;;;;18.13;62.40;99449.38;5086562;28;19943;-67
2022/09/13 02:56:56;;;;;;;;;;;;;;;18.19;62.15;99441.28;5099617;28;19954;-67
2022/09/13 02:59:22;;;;;;;;;;;;;;;18.31;61.45;99452.13;5098897;28;19907;-67
2022/09/13 03:02:20;;;;;;;;;;;;;;;18.22;61.81;99447.25;5100135;28;19923;-68
2022/09/13 03:04:45;;;;;;;;;;;;;;;18.19;61.89;99449.31;5066544;28;19912;-68
2022/09/13 03:07:12;;;;;;;;;;;;;;;18.30;61.46;99450.47;5098753;28;19927;-68
2022/09/13 03:09:41;;;;;;;;;;;;;;;18.18;61.79;99445.00;5098067;28;19912;-67
2022/09/13 03:12:06;;;;;;;;;;;;;;;18.34;61.20;99451.69;5103540;28;19949;-67
2022/09/13 03:14:41;;;;;;;;;;;;;;;18.26;61.25;99449.28;5103135;28;19915;-67
2022/09/13 03:17:06;;;;;;;;;;;;;;;17.95;62.29;99447.44;5103050;28;19916;-68
2022/09/13 03:19:52;;;;;;;;;;;;;;;17.80;63.00;99453.13;5103393;28;19965;-67
2022/09/13 03:22:26;;;;;;;;;;;;;;;17.88;62.55;99446.69;5099984;28;19916;-67
2022/09/13 03:25:07;;;;;;;;;;;;;;;18.07;61.91;99452.94;5098380;28;19983;-67
2022/09/13 03:27:32;;;;;;;;;;;;;;;18.13;61.43;99460.09;5098141;28;20184;-67
2022/09/13 03:30:02;;;;;;;;;;;;;;;18.31;61.17;99464.69;5098795;28;19912;-67
2022/09/13 03:32:30;;;;;;;;;;;;;;;18.34;60.89;99462.41;5101439;28;19924;-67
2022/09/13 03:35:14;;;;;;;;;;;;;;;18.17;61.19;99463.97;5079856;28;19919;-67
2022/09/13 03:37:45;;;;;;;;;;;;;;;18.31;60.89;99464.69;5083055;28;20194;-67
2022/09/13 03:40:15;;;;;;;;;;;;;;;18.23;60.74;99462.28;5082522;28;19938;-67
2022/09/13 03:42:44;;;;;;;;;;;;;;;18.13;61.04;99454.75;5095220;28;19950;-67
2022/09/13 03:45:11;;;;;;;;;;;;;;;18.08;60.77;99455.41;5099338;28;19922;-70
2022/09/13 03:47:38;;;;;;;;;;;;;;;17.99;61.11;99454.00;5097895;28;19974;-68
2022/09/13 03:50:06;;;;;;;;;;;;;;;18.13;60.25;99458.25;5096548;28;19912;-67
2022/09/13 03:52:32;;;;;;;;;;;;;;;18.09;60.58;99461.56;5098915;28;19931;-67
2022/09/13 03:54:57;;;;;;;;;;;;;;;18.14;60.38;99459.88;5098540;28;19912;-67
2022/09/13 03:57:23;;;;;;;;;;;;;;;18.03;60.71;99460.59;5099039;28;19953;-67
2022/09/13 03:59:52;;;;;;;;;;;;;;;17.91;61.61;99454.28;5097407;28;20122;-67
2022/09/13 04:02:18;;;;;;;;;;;;;;;17.98;61.30;99462.28;5097978;28;20118;-67
2022/09/13 04:04:44;;;;;;;;;;;;;;;18.05;61.55;99460.38;5098784;28;19924;-68
2022/09/13 04:07:11;;;;;;;;;;;;;;;18.05;61.59;99468.41;5097531;28;19931;-68
2022/09/13 04:09:37;;;;;;;;;;;;;;;17.92;62.26;99463.13;5097759;28;19912;-67
2022/09/13 04:12:02;;;;;;;;;;;;;;;17.87;62.32;99463.78;5098594;28;19992;-67
2022/09/13 04:14:27;;;;;;;;;;;;;;;18.01;61.71;99465.34;5096867;28;19916;-68
2022/09/13 04:16:54;;;;;;;;;;;;;;;18.17;61.34;99461.31;5098856;28;19931;-68
2022/09/13 04:19:19;;;;;;;;;;;;;;;18.27;61.23;99468.84;5097021;28;20409;-67
2022/09/13 04:21:48;;;;;;;;;;;;;;;18.30;61.22;99474.59;5101043;28;20294;-67
2022/09/13 04:24:14;;;;;;;;;;;;;;;18.42;61.14;99474.72;5101934;28;19916;-67
2022/09/13 04:26:39;;;;;;;;;;;;;;;18.46;61.17;99471.38;5098113;28;20247;-67
2022/09/13 04:29:05;;;;;;;;;;;;;;;18.59;60.57;99467.75;5097079;28;20229;-68
2022/09/13 04:31:30;;;;;;;;;;;;;;;18.44;61.12;99469.94;5098404;28;19916;-68
2022/09/13 04:33:55;;;;;;;;;;;;;;;18.57;60.39;99479.72;5100479;28;19919;-68
2022/09/13 04:36:21;;;;;;;;;;;;;;;18.51;60.42;99473.38;5101513;28;19950;-68
2022/09/13 04:38:47;;;;;;;;;;;;;;;18.48;60.47;99481.88;5096931;28;19932;-67
2022/09/13 04:41:12;;;;;;;;;;;;;;;18.45;60.02;99475.09;5098116;28;19970;-68
2022/09/13 04:43:37;;;;;;;;;;;;;;;18.41;60.44;99473.88;5096888;28;20259;-67
2022/09/13 04:46:03;;;;;;;;;;;;;;;18.56;59.83;99480.78;5098155;28;20250;-67
2022/09/13 04:48:28;;;;;;;;;;;;;;;18.49;59.53;99489.69;5097728;28;19987;-68
2022/09/13 04:50:59;;;;;;;;;;;;;;;18.59;59.51;99491.06;5101571;28;19943;-67
2022/09/13 04:53:25;;;;;;;;;;;;;;;18.84;58.34;99489.22;5098904;28;19912;-68
2022/09/13 04:55:50;;;;;;;;;;;;;;;18.88;57.72;99486.94;5097971;28;19990;-68
2022/09/13 04:58:15;;;;;;;;;;;;;;;18.98;57.70;99485.38;5096549;28;19924;-68
2022/09/13 05:00:40;;;;;;;;;;;;;;;18.92;58.20;99482.75;5100167;28;19979;-67
2022/09/13 05:03:06;;;;;;;;;;;;;;;18.94;58.35;99486.03;5102401;28;19908;-67
2022/09/13 05:05:31;;;;;;;;;;;;;;;18.96;58.09;99484.78;5099688;28;19916;-67
2022/09/13 05:07:56;;;;;;;;;;;;;;;19.00;58.11;99490.50;5079947;28;20137;-68
2022/09/13 05:10:22;;;;;;;;;;;;;;;19.12;58.12;99488.72;5096131;28;20024;-67
2022/09/13 05:12:47;;;;;;;;;;;;;;;19.09;58.06;99489.16;5096555;28;19919;-68
2022/09/13 05:15:13;;;;;;;;;;;;;;;19.08;58.28;99482.16;5099008;28;19923;-68
2022/09/13 05:17:38;;;;;;;;;;;;;;;19.19;58.40;99486.78;5101148;28;19908;-68
2022/09/13 05:20:04;;;;;;;;;;;;;;;19.38;57.57;99484.91;5099233;28;20105;-67
2022/09/13 05:22:30;;;;;;;;;;;;;;;19.84;56.37;99488.91;5079850;28;19915;-67
2022/09/13 05:24:55;;;;;;;;;;;;;;;20.04;55.98;99487.56;5098257;28;20216;-68
2022/09/13 05:27:21;;;;;;;;;;;;;;;20.55;54.87;99496.09;5103670;28;19935;-67
2022/09/13 05:29:46;;;;;;;;;;;;;;;20.75;53.89;99498.47;5086224;28;20103;-68
2022/09/13 05:32:11;;;;;;;;;;;;;;;20.65;53.81;99491.78;5106373;28;19912;-67
2022/09/13 05:34:36;;;;;;;;;;;;;;;20.75;53.26;99483.13;5106463;28;19912;-68
2022/09/13 05:37:02;;;;;;;;;;;;;;;20.63;52.70;99488.50;5106439;28;19972;-68
2022/09/13 05:39:27;;;;;;;;;;;;;;;20.60;52.03;99504.31;5106109;28;19912;-68
2022/09/13 05:41:52;;;;;;;;;;;;;;;20.66;52.55;99496.13;5106525;28;19911;-67
2022/09/13 05:44:18;;;;;;;;;;;;;;;20.87;52.57;99493.91;5106005;28;19912;-68
2022/09/13 05:46:45;;;;;;;;;;;;;;;20.99;51.50;99490.16;5106368;28;19919;-68
2022/09/13 05:49:11;;;;;;;;;;;;;;;21.30;51.08;99480.06;5106435;28;19962;-67
2022/09/13 05:51:36;;;;;;;;;;;;;;;21.42;50.49;99480.03;5106297;28;19911;-68
2022/09/13 05:54:01;;;;;;;;;;;;;;;21.45;50.53;99479.56;5106450;28;20098;-68
2022/09/13 05:56:28;;;;;;;;;;;;;;;21.74;50.05;99483.91;5106051;28;19935;-68
2022/09/13 05:58:54;;;;;;;;;;;;;;;21.98;49.67;99481.94;5106113;28;19927;-68
2022/09/13 06:01:20;;;;;;;;;;;;;;;22.12;48.64;99472.50;5106259;28;19912;-68
2022/09/13 06:03:50;;;;;;;;;;;;;;;22.18;48.19;99479.63;5106069;28;20132;-68
2022/09/13 06:06:15;;;;;;;;;;;;;;;22.41;48.42;99478.66;5105648;28;19943;-68
2022/09/13 06:08:41;;;;;;;;;;;;;;;22.63;47.28;99484.13;5105982;28;20206;-68
2022/09/13 06:11:07;;;;;;;;;;;;;;;22.67;47.14;99485.25;5105997;28;19936;-68
2022/09/13 06:13:33;;;;;;;;;;;;;;;22.27;48.51;99480.03;5105655;28;19947;-68
2022/09/13 06:15:59;;;;;;;;;;;;;;;22.53;48.12;99483.97;5106137;28;19919;-68
2022/09/13 06:18:25;;;;;;;;;;;;;;;22.77;47.64;99487.28;5105704;28;19974;-68
2022/09/13 06:20:56;;;;;;;;;;;;;;;23.03;46.75;99488.53;5088063;28;19919;-68
2022/09/13 06:23:21;;;;;;;;;;;;;;;23.10;46.66;99491.88;5103247;28;19919;-67
2022/09/13 06:25:46;;;;;;;;;;;;;;;23.01;46.71;99482.56;5101102;28;20194;-68
2022/09/13 06:28:11;;;;;;;;;;;;;;;23.40;46.18;99488.72;5083397;28;19919;-68
2022/09/13 06:30:37;;;;;;;;;;;;;;;23.34;45.34;99481.63;5100761;28;19916;-68
2022/09/13 06:33:03;;;;;;;;;;;;;;;23.13;45.64;99484.09;5101906;28;19980;-67
2022/09/13 06:35:28;;;;;;;;;;;;;;;23.28;45.93;99491.56;5100401;28;19938;-67
2022/09/13 06:37:55;;;;;;;;;;;;;;;23.67;45.35;99492.31;5101546;28;19912;-67
2022/09/13 06:40:21;;;;;;;;;;;;;;;23.87;44.72;99499.84;5100419;28;20214;-67
2022/09/13 06:42:47;;;;;;;;;;;;;;;24.19;44.12;99502.59;5103811;28;19919;-67
2022/09/13 06:45:12;;;;;;;;;;;;;;;24.37;43.12;99496.03;5103976;28;19916;-67
2022/09/13 06:47:37;;;;;;;;;;;;;;;24.25;42.62;99495.34;5101388;28;19916;-67
2022/09/13 06:50:03;;;;;;;;;;;;;;;24.17;43.05;99499.34;5101068;28;19919;-67
2022/09/13 06:52:28;;;;;;;;;;;;;;;24.04;43.44;99505.16;5101599;28;19951;-67
2022/09/13 06:54:53;;;;;;;;;;;;;;;24.23;43.19;99501.03;5100612;28;20230;-67
2022/09/13 06:57:18;;;;;;;;;;;;;;;24.34;42.34;99502.78;5100206;28;19916;-67
2022/09/13 06:59:44;;;;;;;;;;;;;;;24.76;41.41;99502.00;5101333;28;20229;-67
2022/09/13 07:02:09;;;;;;;;;;;;;;;24.59;41.21;99504.88;5100092;28;19947;-67
2022/09/13 07:04:34;;;;;;;;;;;;;;;24.60;41.36;99498.38;5101101;28;19966;-67
2022/09/13 07:07:00;;;;;;;;;;;;;;;24.30;42.40;99509.78;5099026;28;20245;-67
2022/09/13 07:09:25;;;;;;;;;;;;;;;24.97;41.40;99511.06;5099284;28;19964;-67
2022/09/13 07:11:52;;;;;;;;;;;;;;;25.02;40.97;99511.16;5099437;28;19916;-67
2022/09/13 07:14:21;;;;;;;;;;;;;;;25.05;40.11;99511.47;5099860;28;19912;-68
2022/09/13 07:16:47;;;;;;;;;;;;;;;25.18;40.06;99512.88;5099378;28;19916;-67
2022/09/13 07:19:16;;;;;;;;;;;;;;;25.26;39.87;99512.38;5100024;28;19949;-67
2022/09/13 07:21:42;;;;;;;;;;;;;;;25.66;39.03;99519.06;5100053;28;20206;-68
2022/09/13 07:24:08;;;;;;;;;;;;;;;25.46;39.41;99522.50;5098688;28;20161;-68
2022/09/13 07:26:33;;;;;;;;;;;;;;;25.68;38.51;99520.44;5099699;28;19920;-68
2022/09/13 07:29:00;;;;;;;;;;;;;;;25.67;39.06;99518.81;5099481;28;20495;-68
2022/09/13 07:31:29;;;;;;;;;;;;;;;25.93;37.93;99511.56;5098860;28;19938;-68
2022/09/13 07:33:56;;;;;;;;;;;;;;;26.05;38.15;99522.19;5099874;28;19943;-67
2022/09/13 07:36:21;;;;;;;;;;;;;;;26.24;37.21;99522.47;5099007;28;19915;-67
2022/09/13 07:38:47;;;;;;;;;;;;;;;26.06;36.97;99515.69;5098919;28;20055;-67
2022/09/13 07:41:16;;;;;;;;;;;;;;;25.93;37.33;99511.56;5099338;28;20141;-67
2022/09/13 07:43:42;;;;;;;;;;;;;;;26.54;36.47;99508.94;5098263;28;19927;-68
2022/09/13 07:46:12;;;;;;;;;;;;;;;25.97;37.25;99512.66;5098603;28;19975;-67
2022/09/13 07:48:38;;;;;;;;;;;;;;;25.80;37.08;99509.34;5097702;28;19931;-67
2022/09/13 07:51:03;;;;;;;;;;;;;;;26.22;37.40;99508.38;5098965;28;19915;-67
2022/09/13 07:53:29;;;;;;;;;;;;;;;26.51;35.91;99516.81;5097751;28;19989;-67
2022/09/13 07:56:01;;;;;;;;;;;;;;;26.73;36.50;99504.59;5099530;28;19931;-67
2022/09/13 07:58:26;;;;;;;;;;;;;;;26.93;36.42;99508.34;5099008;28;20362;-68
2022/09/13 08:00:52;;;;;;;;;;;;;;;27.05;35.13;99500.78;5098104;28;19916;-68
2022/09/13 08:03:17;;;;;;;;;;;;;;;26.77;35.31;99507.56;5099123;28;19919;-68
2022/09/13 08:05:42;;;;;;;;;;;;;;;27.13;33.58;99504.84;5080030;28;19931;-68
2022/09/13 08:08:08;;;;;;;;;;;;;;;26.76;33.65;99508.66;5099471;28;19943;-68
2022/09/13 08:10:33;;;;;;;;;;;;;;;26.66;33.34;99506.75;5098065;28;19974;-67
2022/09/13 08:12:59;;;;;;;;;;;;;;;26.95;32.82;99496.13;5098147;28;19949;-68
2022/09/13 08:15:24;;;;;;;;;;;;;;;26.69;32.50;99502.69;5099209;28;20236;-68
2022/09/13 08:17:50;;;;;;;;;;;;;;;26.52;32.98;99494.00;5097659;28;19988;-67
2022/09/13 08:20:15;;;;;;;;;;;;;;;26.93;32.07;99498.31;5097969;28;19923;-68
2022/09/13 08:22:40;;;;;;;;;;;;;;;26.50;32.45;99501.63;5098750;28;20204;-67
2022/09/13 08:25:06;;;;;;;;;;;;;;;26.75;32.10;99501.59;5097678;28;19938;-68
2022/09/13 08:27:31;;;;;;;;;;;;;;;26.73;31.62;99499.16;5098867;28;19924;-67
2022/09/13 08:29:56;;;;;;;;;;;;;;;26.45;32.31;99499.72;5098349;28;20017;-68
2022/09/13 08:32:21;;;;;;;;;;;;;;;26.66;32.06;99501.34;5097896;28;19916;-68
2022/09/13 08:34:47;;;;;;;;;;;;;;;26.80;31.65;99496.16;5099037;28;20190;-68
2022/09/13 08:37:12;;;;;;;;;;;;;;;26.68;31.50;99501.88;5097546;28;19924;-68
2022/09/13 08:39:37;;;;;;;;;;;;;;;26.86;30.98;99503.22;5097508;28;19920;-68
2022/09/13 08:42:10;;;;;;;;;;;;;;;27.24;31.11;99487.41;5098810;28;20011;-68
2022/09/13 08:44:44;;;;;;;;;;;;;;;27.37;31.47;99486.00;5098301;28;19982;-68
2022/09/13 08:47:15;;;;;;;;;;;;;;;27.47;30.83;99492.19;5079219;28;19989;-68
2022/09/13 08:49:46;;;;;;;;;;;;;;;27.65;30.63;99491.59;5097606;28;19982;-68
2022/09/13 08:52:14;;;;;;;;;;;;;;;27.16;30.10;99480.63;5097088;28;19923;-68
2022/09/13 08:54:40;;;;;;;;;;;;;;;26.93;30.69;99490.16;5098636;28;19912;-68
2022/09/13 08:57:14;;;;;;;;;;;;;;;27.22;30.58;99500.44;5097165;28;19924;-68
2022/09/13 08:59:50;;;;;;;;;;;;;;;27.54;29.72;99484.53;5096802;28;20205;-68
2022/09/13 09:02:22;;;;;;;;;;;;;;;27.55;29.37;99488.88;5101910;28;19923;-68
2022/09/13 09:05:06;;;;;;;;;;;;;;;27.30;30.05;99489.00;5103668;28;20224;-68
2022/09/13 09:07:34;;;;;;;;;;;;;;;26.93;30.51;99490.16;5096706;28;20105;-68
2022/09/13 09:10:02;;;;;;;;;;;;;;;26.38;30.91;99482.88;5098101;28;19958;-68
2022/09/13 09:12:27;;;;;;;;;;;;;;;26.65;30.74;99477.97;5098709;28;19924;-68
2022/09/13 09:14:57;;;;;;;;;;;;;;;26.01;32.21;99486.63;5096915;28;20102;-67
2022/09/13 09:17:27;;;;;;;;;;;;;;;25.87;32.18;99492.81;5095935;28;19915;-68
2022/09/13 09:20:02;;;;;;;;;;;;;;;25.71;33.23;99487.38;5098295;28;19912;-67
2022/09/13 09:22:31;;;;;;;;;;;;;;;25.61;33.18;99497.34;5098604;28;19932;-68
2022/09/13 09:24:57;;;;;;;;;;;;;;;25.71;32.94;99492.78;5097178;28;20144;-68
2022/09/13 09:27:22;;;;;;;;;;;;;;;25.40;33.49;99499.97;5098170;28;19960;-68
2022/09/13 09:29:49;;;;;;;;;;;;;;;25.19;34.09;99490.13;5097353;28;20170;-68
2022/09/13 09:32:35;;;;;;;;;;;;;;;25.40;33.58;99496.44;5079100;28;20215;-68
2022/09/13 09:35:15;;;;;;;;;;;;;;;25.41;32.63;99490.75;5096597;28;19920;-68
2022/09/13 09:37:42;;;;;;;;;;;;;;;25.32;32.32;99496.97;5096900;28;19928;-68
2022/09/13 09:40:11;;;;;;;;;;;;;;;25.35;32.54;99494.53;5078962;28;19951;-67
2022/09/13 09:42:41;;;;;;;;;;;;;;;25.46;31.95;99485.38;5097586;28;20102;-68
2022/09/13 09:45:25;;;;;;;;;;;;;;;25.55;32.36;99491.09;5097691;28;19912;-68
2022/09/13 09:47:50;;;;;;;;;;;;;;;25.59;31.96;99491.38;5097472;28;19991;-68
2022/09/13 09:50:24;;;;;;;;;;;;;;;25.66;31.94;99491.97;5096736;28;19924;-68
2022/09/13 09:52:50;;;;;;;;;;;;;;;25.21;32.83;99500.69;5096489;28;19913;-68
2022/09/13 09:55:21;;;;;;;;;;;;;;;25.42;32.70;99497.81;5082887;28;19954;-68
2022/09/13 09:57:54;;;;;;;;;;;;;;;25.74;32.33;99494.97;5104483;28;20106;-68
2022/09/13 10:00:20;;;;;;;;;;;;;;;25.59;32.24;99489.47;5114427;28;20125;-68
2022/09/13 10:02:47;;;;;;;;;;;;;;;25.82;32.70;99493.63;5107176;28;19912;-68
2022/09/13 10:05:13;;;;;;;;;;;;;;;26.07;31.84;99487.47;5121262;28;19916;-68
2022/09/13 10:07:39;;;;;;;;;;;;;;;26.08;33.00;99487.19;5121253;28;19965;-68
2022/09/13 10:10:07;;;;;;;;;;;;;;;26.00;31.79;99484.16;5102316;28;20139;-68
2022/09/13 10:12:34;;;;;;;;;;;;;;;26.07;32.11;99485.56;5124272;28;19922;-68
2022/09/13 10:15:19;;;;;;;;;;;;;;;26.29;31.10;99471.72;5124565;28;19954;-68
2022/09/13 10:18:04;;;;;;;;;;;;;;;26.17;30.36;99473.09;5124618;28;19922;-68
2022/09/13 10:20:30;;;;;;;;;;;;;;;26.32;31.11;99464.94;5110356;28;19928;-68
2022/09/13 10:23:13;;;;;;;;;;;;;;;26.51;29.99;99466.06;5124173;28;19957;-68
2022/09/13 10:25:40;;;;;;;;;;;;;;;26.73;30.28;99452.97;5110247;28;20205;-68
2022/09/13 10:28:10;;;;;;;;;;;;;;;26.97;30.14;99450.50;5123641;28;20086;-68
2022/09/13 10:30:45;;;;;;;;;;;;;;;26.89;30.02;99448.31;5122699;28;19950;-68
2022/09/13 10:33:31;;;;;;;;;;;;;;;26.91;30.02;99443.41;5123993;28;19961;-68
2022/09/13 10:35:59;;;;;;;;;;;;;;;26.85;29.85;99444.53;5109992;28;19949;-68
2022/09/13 10:38:35;;;;;;;;;;;;;;;26.83;30.15;99429.59;5123255;28;19919;-68
2022/09/13 10:41:03;;;;;;;;;;;;;;;26.87;30.08;99425.22;5107974;28;20144;-68
2022/09/13 10:43:29;;;;;;;;;;;;;;;26.79;29.75;99437.47;5123162;28;19971;-68
2022/09/13 10:45:55;;;;;;;;;;;;;;;26.76;29.59;99438.03;5122946;28;19911;-68
2022/09/13 10:48:21;;;;;;;;;;;;;;;26.92;29.10;99433.38;5124141;28;19917;-68
2022/09/13 10:51:20;;;;;;;;;;;;;;;26.95;28.42;99433.63;5123716;28;19916;-68
2022/09/13 10:53:46;;;;;;;;;;;;;;;26.95;28.07;99425.47;5068353;28;19986;-68
2022/09/13 10:56:22;;;;;;;;;;;;;;;26.86;29.10;99412.75;5122395;28;20128;-68
2022/09/13 10:58:48;;;;;;;;;;;;;;;26.86;28.39;99416.28;5123452;28;19918;-68
2022/09/13 11:01:34;;;;;;;;;;;;;;;26.83;28.03;99418.72;5121626;28;20113;-68
2022/09/13 11:04:12;;;;;;;;;;;;;;;26.90;29.10;99422.78;5105096;28;20168;-68
2022/09/13 11:06:41;;;;;;;;;;;;;;;27.08;28.32;99415.16;5108736;28;20269;-68
2022/09/13 11:09:14;;;;;;;;;;;;;;;27.08;27.81;99412.44;5123560;28;19975;-68
2022/09/13 11:12:00;;;;;;;;;;;;;;;27.08;27.68;99409.72;5108480;28;19943;-68
2022/09/13 11:14:45;;;;;;;;;;;;;;;27.31;28.19;99404.44;5103403;28;19991;-68
2022/09/13 11:17:22;;;;;;;;;;;;;;;27.29;28.51;99398.47;5111858;28;19946;-68
2022/09/13 11:19:53;;;;;;;;;;;;;;;27.36;28.33;99403.63;5122138;28;19912;-68
2022/09/13 11:22:21;;;;;;;;;;;;;;;27.28;28.14;99405.00;5122541;28;19915;-68
2022/09/13 11:24:52;;;;;;;;;;;;;;;27.39;28.05;99399.53;5104226;28;20207;-68
2022/09/13 11:27:17;;;;;;;;;;;;;;;27.42;28.43;99394.34;5123747;28;19922;-68
2022/09/13 11:29:49;;;;;;;;;;;;;;;27.33;27.31;99393.28;5110142;28;20140;-68
2022/09/13 11:32:17;;;;;;;;;;;;;;;26.99;27.38;99393.97;5098588;28;20000;-68
2022/09/13 11:34:42;;;;;;;;;;;;;;;26.70;28.32;99396.50;5096848;28;19916;-68
2022/09/13 11:37:07;;;;;;;;;;;;;;;26.87;27.99;99389.91;5098654;28;19939;-68
2022/09/13 11:39:38;;;;;;;;;;;;;;;26.61;28.70;99389.19;5096874;28;19958;-68
2022/09/13 11:42:04;;;;;;;;;;;;;;;26.39;28.50;99390.31;5096606;28;19920;-68
2022/09/13 11:44:35;;;;;;;;;;;;;;;26.60;28.22;99390.28;5097494;28;19922;-67
2022/09/13 11:47:06;;;;;;;;;;;;;;;26.75;28.41;99384.81;5098067;28;19930;-68
2022/09/13 11:49:51;;;;;;;;;;;;;;;26.58;29.26;99354.44;5098072;28;19969;-68
2022/09/13 11:52:19;;;;;;;;;;;;;;;26.57;29.21;99377.25;5098217;28;19952;-68
2022/09/13 11:54:51;;;;;;;;;;;;;;;26.71;29.22;99389.97;5080392;28;19947;-68
2022/09/13 11:57:20;;;;;;;;;;;;;;;26.62;29.67;99377.22;5096682;28;19916;-67
2022/09/13 12:00:12;;;;;;;;;;;;;;;26.74;29.50;99377.75;5097075;28;20198;-68
2022/09/13 12:02:56;;;;;;;;;;;;;;;26.81;28.31;99378.25;5048690;28;19916;-68
2022/09/13 12:05:23;;;;;;;;;;;;;;;26.58;28.49;99382.41;5096405;28;20276;-68
2022/09/13 12:07:55;;;;;;;;;;;;;;;26.80;29.43;99376.63;5096766;28;19962;-68
2022/09/13 12:10:20;;;;;;;;;;;;;;;26.71;30.26;99383.72;5096575;28;19915;-67
2022/09/13 12:12:48;;;;;;;;;;;;;;;26.45;29.80;99384.88;5097187;28;19927;-68
2022/09/13 12:15:25;;;;;;;;;;;;;;;26.74;29.87;99375.03;5095418;28;20000;-68
2022/09/13 12:17:53;;;;;;;;;;;;;;;26.74;29.81;99383.19;5097992;28;20225;-68
2022/09/13 12:20:40;;;;;;;;;;;;;;;26.78;28.70;99386.16;5097608;28;20218;-68
2022/09/13 12:23:18;;;;;;;;;;;;;;;26.77;29.16;99377.19;5098418;28;19946;-68
2022/09/13 12:25:59;;;;;;;;;;;;;;;26.93;29.05;99378.75;5097959;28;20083;-68
2022/09/13 12:28:24;;;;;;;;;;;;;;;26.70;28.79;99385.63;5097423;28;20197;-68
2022/09/13 12:30:58;;;;;;;;;;;;;;;26.54;29.02;99383.22;5095333;28;19920;-68
2022/09/13 12:33:25;;;;;;;;;;;;;;;26.34;29.59;99384.09;5096135;28;20128;-68
2022/09/13 12:35:50;;;;;;;;;;;;;;;26.30;29.03;99386.50;5097248;28;19971;-68
2022/09/13 12:38:15;;;;;;;;;;;;;;;26.32;29.18;99384.38;5096301;28;19942;-68
2022/09/13 12:40:59;;;;;;;;;;;;;;;26.39;29.32;99376.75;5096010;28;19912;-67
2022/09/13 12:43:37;;;;;;;;;;;;;;;26.06;29.13;99377.31;5093452;28;19969;-68
2022/09/13 12:46:20;;;;;;;;;;;;;;;26.17;28.77;99381.63;5096220;28;19919;-68
2022/09/13 12:48:49;;;;;;;;;;;;;;;26.12;28.88;99369.97;5096194;28;19923;-68
2022/09/13 12:51:29;;;;;;;;;;;;;;;26.21;28.53;99363.72;5096867;28;19979;-68
2022/09/13 12:53:58;;;;;;;;;;;;;;;26.44;28.10;99354.22;5096383;28;19919;-68
2022/09/13 12:56:33;;;;;;;;;;;;;;;26.39;28.24;99354.22;5095049;28;19912;-68